Arlington, Oregon
Current Conditions -  °F | °C
As of 4:01 AM on Thursday 18 Dec 2014 (Local Time) from KHRI Reporting Station
Haze Haze  
Wind Chill: 32°   Ceiling: Unl
Heat Index: 32°   Visibility: 1.7mi
Dew Point: 30°   Wind: 3mph
Humidity: 92%   Direction: 120°ESE
Pressure: 30.02"   Gusts: NA
Location:  45.72°N, 120.2°W
Report Text: KHRI 181201Z AUTO 12003KT 1 3/4SM BR CLR 00/M01 A3002 RMK AO2 T00001011
Loading
Personal Weather Stations






























Interactive Weather Map New forecast layout! Learn more

10-Day Weather Forecast

Advertisements
Track Severe Weather on mobile